Time,TemperatureF,DewpointF,PressureIn,WindDirection,WindDirectionDegrees,WindSpeedMPH,WindSpeedGustMPH,Humidity,HourlyPrecipIn,Conditions,Clouds,dailyrainin,SoftwareType,DateUTC
2013-04-01 00:03:00,47.5,46.8,29.62,West,264,4.7,5.4,97,0.00,,,0.00,VWS V12.07,2013-03-31 22:03:00,
2013-04-01 00:17:00,47.2,46.4,29.62,West,274,4.1,5.4,97,0.00,,,0.00,VWS V12.07,2013-03-31 22:17:00,
2013-04-01 00:33:00,47.2,46.8,29.62,West,273,0.0,4.1,98,0.00,,,0.00,VWS V12.07,2013-03-31 22:33:00,
2013-04-01 00:47:00,47.2,47.1,29.62,West,268,4.1,6.1,100,0.00,,,0.00,VWS V12.07,2013-03-31 22:47:00,
2013-04-01 01:03:00,47.4,47.4,29.59,West,275,3.4,4.7,100,0.00,,,0.00,VWS V12.07,2013-03-31 23:03:00,
2013-04-01 01:17:00,47.7,47.7,29.59,WSW,257,4.7,8.8,100,0.00,,,0.00,VWS V12.07,2013-03-31 23:17:00,
2013-04-01 01:33:00,47.7,47.7,29.59,West,267,6.1,8.1,100,0.00,,,0.00,VWS V12.07,2013-03-31 23:33:00,
2013-04-01 01:47:00,47.7,47.6,29.59,West,271,0.0,4.1,100,0.00,,,0.00,VWS V12.07,2013-03-31 23:47:00,
2013-04-01 02:03:00,47.5,47.5,29.56,West,271,0.0,0.0,100,0.00,,,0.00,VWS V12.07,2013-04-01 00:03:00,
2013-04-01 02:17:00,47.5,47.5,29.56,West,264,4.1,7.4,100,0.00,,,0.00,VWS V12.07,2013-04-01 00:17:00,
2013-04-01 02:33:00,47.7,47.7,29.56,West,274,0.0,6.1,100,0.00,,,0.00,VWS V12.07,2013-04-01 00:33:00,
2013-04-01 02:47:00,47.7,47.7,29.56,West,279,3.4,5.4,100,0.00,,,0.00,VWS V12.07,2013-04-01 00:47:00,
2013-04-01 03:03:00,48.2,48.2,29.56,West,279,0.0,4.7,100,0.00,,,0.00,VWS V12.07,2013-04-01 01:03:00,
2013-04-01 03:17:00,48.6,48.6,29.53,West,270,6.1,6.1,100,0.00,,,0.00,VWS V12.07,2013-04-01 01:17:00,
2013-04-01 03:33:00,48.9,48.9,29.53,West,278,0.0,6.8,100,0.00,,,0.00,VWS V12.07,2013-04-01 01:33:00,
2013-04-01 03:47:00,49.1,49.1,29.53,West,267,4.7,8.8,100,0.00,,,0.00,VWS V12.07,2013-04-01 01:47:00,
2013-04-01 04:03:00,49.3,49.3,29.53,West,270,0.0,5.4,100,0.00,,,0.00,VWS V12.07,2013-04-01 02:03:00,
2013-04-01 04:17:00,49.6,49.6,29.50,WNW,283,5.4,6.1,100,0.00,,,0.00,VWS V12.07,2013-04-01 02:17:00,
2013-04-01 04:33:00,50.0,50.0,29.50,WNW,283,0.0,0.0,100,0.00,,,0.00,VWS V12.07,2013-04-01 02:33:00,
2013-04-01 04:47:00,50.2,50.2,29.50,WNW,283,5.4,6.1,100,0.00,,,0.00,VWS V12.07,2013-04-01 02:47:00,
2013-04-01 05:03:00,50.5,50.5,29.50,WNW,284,0.0,0.0,100,0.00,,,0.00,VWS V12.07,2013-04-01 03:03:00,
2013-04-01 05:17:00,50.7,50.7,29.47,WNW,284,0.0,0.0,100,0.00,,,0.00,VWS V12.07,2013-04-01 03:17:00,
2013-04-01 05:33:00,51.0,51.0,29.47,WNW,298,0.0,6.1,100,0.00,,,0.00,VWS V12.07,2013-04-01 03:33:00,
2013-04-01 05:47:00,51.2,51.2,29.47,WNW,292,0.0,0.0,100,0.00,,,0.00,VWS V12.07,2013-04-01 03:47:00,
2013-04-01 06:03:00,51.7,51.7,29.47,NNW,331,4.1,8.8,100,0.00,,,0.00,VWS V12.07,2013-04-01 04:03:00,
2013-04-01 06:17:00,52.2,52.3,29.47,NW,304,0.0,12.2,100,0.01,,,0.01,VWS V12.07,2013-04-01 04:17:00,
2013-04-01 06:33:00,52.4,51.7,29.47,WNW,287,10.8,14.5,97,0.01,,,0.01,VWS V12.07,2013-04-01 04:33:00,
2013-04-01 06:47:00,52.2,51.2,29.44,WNW,303,11.5,11.5,96,0.01,,,0.01,VWS V12.07,2013-04-01 04:47:00,
2013-04-01 07:03:00,52.1,51.3,29.44,WNW,285,8.1,8.8,97,0.04,,,0.04,VWS V12.07,2013-04-01 05:03:00,
2013-04-01 07:17:00,51.9,51.1,29.44,WNW,296,4.7,12.2,97,0.05,,,0.05,VWS V12.07,2013-04-01 05:17:00,
2013-04-01 07:33:00,51.9,51.5,29.44,West,264,6.1,9.5,98,0.05,,,0.06,VWS V12.07,2013-04-01 05:33:00,
2013-04-01 07:47:00,52.1,52.0,29.44,NW,324,4.7,4.7,100,0.06,,,0.07,VWS V12.07,2013-04-01 05:47:00,
2013-04-01 08:03:00,51.7,51.3,29.44,NW,307,4.7,5.4,98,0.11,,,0.15,VWS V12.07,2013-04-01 06:03:00,
2013-04-01 08:17:00,51.6,51.5,29.44,NW,325,5.4,10.8,100,0.16,,,0.20,VWS V12.07,2013-04-01 06:17:00,
2013-04-01 08:33:00,51.4,51.3,29.41,WNW,303,9.5,12.2,100,0.17,,,0.22,VWS V12.07,2013-04-01 06:33:00,
2013-04-01 08:48:00,51.4,50.6,29.41,NW,320,8.1,11.5,97,0.16,,,0.23,VWS V12.07,2013-04-01 06:48:00,
2013-04-01 09:03:00,51.4,50.3,29.41,North,1,12.5,12.5,96,0.09,,,0.23,VWS V12.07,2013-04-01 07:03:00,
2013-04-01 09:17:00,51.4,50.3,29.41,West,272,5.4,15.2,96,0.10,,,0.24,VWS V12.07,2013-04-01 07:17:00,
2013-04-01 09:33:00,51.4,50.3,29.41,WNW,294,9.5,15.9,96,0.04,,,0.24,VWS V12.07,2013-04-01 07:33:00,
2013-04-01 09:47:00,51.4,50.3,29.41,NNW,334,11.5,12.2,96,0.01,,,0.24,VWS V12.07,2013-04-01 07:47:00,
2013-04-01 10:03:00,51.4,49.9,29.41,North,349,8.8,12.5,95,0.03,,,0.26,VWS V12.07,2013-04-01 08:03:00,
2013-04-01 10:18:00,51.6,50.8,29.41,West,272,6.1,13.2,97,0.04,,,0.27,VWS V12.07,2013-04-01 08:18:00,
2013-04-01 10:47:00,51.6,50.8,29.41,WNW,284,8.8,12.5,97,0.05,,,0.29,VWS V12.07,2013-04-01 08:47:00,
2013-04-01 11:03:00,51.6,51.5,29.41,NNW,332,5.4,8.8,100,0.06,,,0.32,VWS V12.07,2013-04-01 09:03:00,
2013-04-01 11:17:00,51.4,51.3,29.41,North,0,4.1,15.9,100,0.10,,,0.35,VWS V12.07,2013-04-01 09:17:00,
2013-04-01 11:33:00,51.6,51.1,29.41,NW,321,8.8,16.6,98,0.09,,,0.36,VWS V12.07,2013-04-01 09:33:00,
2013-04-01 11:47:00,51.6,50.1,29.41,NNW,337,9.5,15.2,95,0.09,,,0.37,VWS V12.07,2013-04-01 09:47:00,
2013-04-01 12:03:00,51.0,49.2,29.41,NNW,328,8.1,12.5,94,0.07,,,0.38,VWS V12.07,2013-04-01 10:03:00,
2013-04-01 12:17:00,50.9,49.8,29.41,NNW,344,5.4,15.2,96,0.11,,,0.42,VWS V12.07,2013-04-01 10:17:00,
2013-04-01 12:33:00,51.0,50.3,29.41,NW,322,9.5,15.9,97,0.07,,,0.43,VWS V12.07,2013-04-01 10:33:00,
2013-04-01 12:47:00,51.6,50.8,29.41,North,10,4.1,12.5,97,0.06,,,0.43,VWS V12.07,2013-04-01 10:47:00,
2013-04-01 13:03:00,51.7,50.0,29.38,SW,226,9.5,9.5,94,0.05,,,0.43,VWS V12.07,2013-04-01 11:03:00,
2013-04-01 13:17:00,51.6,48.4,29.38,West,277,8.1,20.6,89,0.05,,,0.43,VWS V12.07,2013-04-01 11:17:00,
2013-04-01 13:33:00,51.6,48.7,29.38,WNW,286,5.4,15.2,90,0.01,,,0.43,VWS V12.07,2013-04-01 11:33:00,
2013-04-01 13:47:00,51.4,49.3,29.38,NNW,340,14.5,16.6,92,0.00,,,0.43,VWS V12.07,2013-04-01 11:47:00,
2013-04-01 14:03:00,51.4,48.5,29.38,North,0,18.6,18.6,90,0.00,,,0.43,VWS V12.07,2013-04-01 12:03:00,
2013-04-01 14:18:00,51.6,48.4,29.41,NNW,337,15.2,19.9,89,0.00,,,0.43,VWS V12.07,2013-04-01 12:18:00,
2013-04-01 14:33:00,51.4,49.3,29.41,WNW,295,15.2,19.9,92,0.00,,,0.43,VWS V12.07,2013-04-01 12:33:00,
2013-04-01 14:47:00,51.2,48.7,29.41,NW,320,6.1,19.9,91,0.00,,,0.43,VWS V12.07,2013-04-01 12:47:00,
2013-04-01 15:03:00,51.4,49.6,29.41,West,268,9.5,14.5,94,0.00,,,0.43,VWS V12.07,2013-04-01 13:03:00,
2013-04-01 15:17:00,51.7,50.6,29.41,West,277,8.8,19.3,96,0.00,,,0.43,VWS V12.07,2013-04-01 13:17:00,
2013-04-01 15:33:00,52.1,50.6,29.41,WNW,287,5.4,19.9,95,0.01,,,0.43,VWS V12.07,2013-04-01 13:33:00,
2013-04-01 15:47:00,51.6,47.6,29.41,North,357,12.5,25.7,86,0.01,,,0.44,VWS V12.07,2013-04-01 13:47:00,
2013-04-01 16:03:00,50.7,46.8,29.44,West,273,15.9,22.0,86,0.03,,,0.45,VWS V12.07,2013-04-01 14:03:00,
2013-04-01 16:17:00,50.2,47.0,29.44,North,0,6.1,25.3,89,0.05,,,0.47,VWS V12.07,2013-04-01 14:17:00,
2013-04-01 16:33:00,50.2,45.9,29.41,North,353,13.2,16.6,85,0.06,,,0.48,VWS V12.07,2013-04-01 14:33:00,
2013-04-01 16:47:00,50.5,45.9,29.44,North,357,11.5,15.2,84,0.06,,,0.49,VWS V12.07,2013-04-01 14:47:00,
2013-04-01 17:03:00,50.7,46.4,29.44,NNE,14,9.5,16.6,85,0.05,,,0.50,VWS V12.07,2013-04-01 15:03:00,
2013-04-01 17:18:00,50.5,45.1,29.44,WNW,283,6.1,22.0,82,0.09,,,0.55,VWS V12.07,2013-04-01 15:18:00,
2013-04-01 17:48:00,49.6,43.9,29.47,NNW,341,11.5,26.3,80,0.15,,,0.63,VWS V12.07,2013-04-01 15:48:00,
2013-04-01 18:03:00,49.3,43.5,29.47,NNW,333,7.4,15.2,80,0.18,,,0.68,VWS V12.07,2013-04-01 16:03:00,
2013-04-01 18:17:00,49.1,43.0,29.47,North,357,11.5,19.3,79,0.21,,,0.71,VWS V12.07,2013-04-01 16:17:00,
2013-04-01 18:33:00,49.3,42.3,29.47,NW,322,12.5,24.7,77,0.18,,,0.72,VWS V12.07,2013-04-01 16:33:00,
2013-04-01 18:47:00,50.2,39.7,29.47,North,9,15.9,26.3,67,0.13,,,0.72,VWS V12.07,2013-04-01 16:47:00,
2013-04-01 19:03:00,50.5,39.1,29.47,NW,317,11.5,22.0,65,0.06,,,0.73,VWS V12.07,2013-04-01 17:03:00,
2013-04-01 19:17:00,50.7,39.3,29.50,North,8,10.8,22.6,65,0.06,,,0.73,VWS V12.07,2013-04-01 17:17:00,
2013-04-01 19:33:00,50.3,40.3,29.50,NNW,334,8.1,18.6,68,0.03,,,0.74,VWS V12.07,2013-04-01 17:33:00,
2013-04-01 19:47:00,50.2,41.5,29.53,North,5,5.4,12.5,72,0.02,,,0.74,VWS V12.07,2013-04-01 17:47:00,
2013-04-01 20:03:00,49.8,42.8,29.53,North,353,4.7,5.4,77,0.03,,,0.76,VWS V12.07,2013-04-01 18:03:00,
2013-04-01 20:18:00,49.5,43.7,29.56,North,353,4.1,9.5,80,0.05,,,0.78,VWS V12.07,2013-04-01 18:18:00,
2013-04-01 20:33:00,49.3,44.7,29.56,NNE,20,4.7,6.8,84,0.06,,,0.79,VWS V12.07,2013-04-01 18:33:00,
2013-04-01 20:47:00,49.1,44.9,29.56,North,357,4.1,8.1,85,0.07,,,0.81,VWS V12.07,2013-04-01 18:47:00,
2013-04-01 21:03:00,49.5,43.7,29.56,NW,320,4.7,8.8,80,0.06,,,0.81,VWS V12.07,2013-04-01 19:03:00,
2013-04-01 21:17:00,49.3,44.7,29.56,WNW,289,3.4,8.8,84,0.06,,,0.81,VWS V12.07,2013-04-01 19:17:00,
2013-04-01 21:33:00,49.3,44.7,29.59,NW,318,4.7,8.8,84,0.04,,,0.81,VWS V12.07,2013-04-01 19:33:00,
2013-04-01 21:47:00,49.6,44.2,29.59,NNE,21,0.0,8.1,82,0.01,,,0.81,VWS V12.07,2013-04-01 19:47:00,
2013-04-01 22:03:00,49.6,44.6,29.59,WNW,284,0.0,8.1,83,0.00,,,0.81,VWS V12.07,2013-04-01 20:03:00,
2013-04-01 22:17:00,49.5,45.2,29.59,WSW,254,0.0,8.1,85,0.00,,,0.81,VWS V12.07,2013-04-01 20:17:00,
2013-04-01 22:33:00,49.3,46.1,29.59,West,266,4.7,4.7,89,0.01,,,0.82,VWS V12.07,2013-04-01 20:33:00,
2013-04-01 22:47:00,48.9,46.5,29.59,West,272,0.0,0.0,91,0.01,,,0.83,VWS V12.07,2013-04-01 20:47:00,
2013-04-01 23:03:00,48.8,47.0,29.59,WSW,247,3.4,4.1,94,0.01,,,0.83,VWS V12.07,2013-04-01 21:03:00,
2013-04-01 23:18:00,48.8,48.0,29.59,West,270,0.0,7.4,97,0.01,,,0.83,VWS V12.07,2013-04-01 21:18:00,
2013-04-01 23:33:00,48.9,47.8,29.59,NNW,332,0.0,0.0,96,0.01,,,0.83,VWS V12.07,2013-04-01 21:33:00,
2013-04-01 23:47:00,48.9,47.5,29.59,NW,315,5.4,6.1,95,0.01,,,0.83,VWS V12.07,2013-04-01 21:47:00,